sensor_id;sensor_type;location;lat;lon;timestamp;pressure;altitude;pressure_sealevel;temperature;humidity
3206;BME280;1615;53.602;11.418;2023-02-14T00:00:16;103375.13;;;9.29;100.00
3206;BME280;1615;53.602;11.418;2023-02-14T00:02:41;103370.75;;;9.21;100.00
3206;BME280;1615;53.602;11.418;2023-02-14T00:05:07;103371.63;;;9.15;100.00
3206;BME280;1615;53.602;11.418;2023-02-14T00:07:32;103361.38;;;9.04;100.00
3206;BME280;1615;53.602;11.418;2023-02-14T00:09:57;103363.44;;;9.09;100.00
3206;BME280;1615;53.602;11.418;2023-02-14T00:12:23;103373.50;;;9.15;100.00
3206;BME280;1615;53.602;11.418;2023-02-14T00:14:48;103368.66;;;9.17;100.00
3206;BME280;1615;53.602;11.418;2023-02-14T00:17:32;103362.66;;;9.02;100.00
3206;BME280;1615;53.602;11.418;2023-02-14T00:19:57;103360.63;;;8.91;100.00
3206;BME280;1615;53.602;11.418;2023-02-14T00:22:22;103365.06;;;8.85;100.00
3206;BME280;1615;53.602;11.418;2023-02-14T00:24:48;103357.72;;;8.79;100.00
3206;BME280;1615;53.602;11.418;2023-02-14T00:27:13;103354.78;;;8.81;100.00
3206;BME280;1615;53.602;11.418;2023-02-14T00:29:39;103350.97;;;8.88;100.00
3206;BME280;1615;53.602;11.418;2023-02-14T00:32:04;103354.69;;;8.94;100.00
3206;BME280;1615;53.602;11.418;2023-02-14T00:34:29;103362.53;;;8.84;100.00
3206;BME280;1615;53.602;11.418;2023-02-14T00:36:57;103354.16;;;8.79;100.00
3206;BME280;1615;53.602;11.418;2023-02-14T00:39:23;103352.84;;;8.88;100.00
3206;BME280;1615;53.602;11.418;2023-02-14T00:41:48;103230.34;;;8.15;100.00
3206;BME280;1615;53.602;11.418;2023-02-14T00:44:16;103351.16;;;8.93;100.00
3206;BME280;1615;53.602;11.418;2023-02-14T00:46:42;103355.56;;;8.94;100.00
3206;BME280;1615;53.602;11.418;2023-02-14T00:49:07;103351.59;;;8.84;100.00
3206;BME280;1615;53.602;11.418;2023-02-14T00:51:33;103353.97;;;8.74;100.00
3206;BME280;1615;53.602;11.418;2023-02-14T00:53:58;103350.44;;;8.67;100.00
3206;BME280;1615;53.602;11.418;2023-02-14T00:56:26;103343.47;;;8.71;100.00
3206;BME280;1615;53.602;11.418;2023-02-14T00:58:51;103353.63;;;8.64;100.00
3206;BME280;1615;53.602;11.418;2023-02-14T01:01:17;103253.75;;;7.98;100.00
3206;BME280;1615;53.602;11.418;2023-02-14T01:03:43;103360.75;;;8.65;100.00
3206;BME280;1615;53.602;11.418;2023-02-14T01:06:08;103358.22;;;8.70;100.00
3206;BME280;1615;53.602;11.418;2023-02-14T01:08:34;103185.53;;;7.85;100.00
3206;BME280;1615;53.602;11.418;2023-02-14T01:11:14;103339.59;;;8.85;100.00
3206;BME280;1615;53.602;11.418;2023-02-14T01:13:40;103339.78;;;8.90;100.00
3206;BME280;1615;53.602;11.418;2023-02-14T01:16:11;103343.34;;;8.97;100.00
3206;BME280;1615;53.602;11.418;2023-02-14T01:18:38;103351.72;;;9.02;100.00
3206;BME280;1615;53.602;11.418;2023-02-14T01:21:18;103342.00;;;9.06;100.00
3206;BME280;1615;53.602;11.418;2023-02-14T01:23:45;103339.06;;;9.01;100.00
3206;BME280;1615;53.602;11.418;2023-02-14T01:26:13;103353.44;;;8.96;100.00
3206;BME280;1615;53.602;11.418;2023-02-14T01:28:39;103360.56;;;8.97;100.00
3206;BME280;1615;53.602;11.418;2023-02-14T01:31:13;103299.44;;;8.79;100.00
3206;BME280;1615;53.602;11.418;2023-02-14T01:33:39;103335.72;;;8.99;100.00
3206;BME280;1615;53.602;11.418;2023-02-14T01:36:05;103059.56;;;7.31;100.00
3206;BME280;1615;53.602;11.418;2023-02-14T01:38:31;103334.09;;;8.91;100.00
3206;BME280;1615;53.602;11.418;2023-02-14T01:40:56;103330.75;;;8.89;100.00
3206;BME280;1615;53.602;11.418;2023-02-14T01:43:22;103174.34;;;7.93;100.00
3206;BME280;1615;53.602;11.418;2023-02-14T01:45:47;103338.75;;;8.91;100.00
3206;BME280;1615;53.602;11.418;2023-02-14T01:48:13;103331.53;;;8.96;100.00
3206;BME280;1615;53.602;11.418;2023-02-14T01:50:42;103316.91;;;8.78;100.00
3206;BME280;1615;53.602;11.418;2023-02-14T01:53:15;103335.16;;;8.90;100.00
3206;BME280;1615;53.602;11.418;2023-02-14T01:55:45;103332.38;;;8.97;100.00
3206;BME280;1615;53.602;11.418;2023-02-14T01:58:20;103331.50;;;9.03;100.00
3206;BME280;1615;53.602;11.418;2023-02-14T02:00:47;103267.19;;;8.56;100.00
3206;BME280;1615;53.602;11.418;2023-02-14T02:06:33;103343.19;;;8.85;100.00
3206;BME280;1615;53.602;11.418;2023-02-14T02:11:38;103334.06;;;8.98;100.00
3206;BME280;1615;53.602;11.418;2023-02-14T02:14:04;103347.06;;;9.02;100.00
3206;BME280;1615;53.602;11.418;2023-02-14T02:25:37;103336.63;;;8.93;100.00
3206;BME280;1615;53.602;11.418;2023-02-14T02:35:15;103318.47;;;8.98;100.00
3206;BME280;1615;53.602;11.418;2023-02-14T02:40:28;103318.03;;;9.01;100.00
3206;BME280;1615;53.602;11.418;2023-02-14T02:43:01;103310.44;;;9.03;100.00
3206;BME280;1615;53.602;11.418;2023-02-14T02:45:37;103310.88;;;9.00;100.00
3206;BME280;1615;53.602;11.418;2023-02-14T02:48:33;103305.97;;;8.78;100.00
3206;BME280;1615;53.602;11.418;2023-02-14T02:51:04;103310.28;;;8.61;100.00
3206;BME280;1615;53.602;11.418;2023-02-14T02:53:59;103303.09;;;8.66;100.00
3206;BME280;1615;53.602;11.418;2023-02-14T02:56:31;103307.28;;;8.69;100.00
3206;BME280;1615;53.602;11.418;2023-02-14T02:59:20;103308.13;;;8.69;100.00
3206;BME280;1615;53.602;11.418;2023-02-14T03:04:17;103311.72;;;8.70;100.00
3206;BME280;1615;53.602;11.418;2023-02-14T03:07:02;103314.88;;;8.67;100.00
3206;BME280;1615;53.602;11.418;2023-02-14T03:09:55;103294.84;;;8.73;100.00
3206;BME280;1615;53.602;11.418;2023-02-14T03:17:44;103265.38;;;8.44;100.00
3206;BME280;1615;53.602;11.418;2023-02-14T03:20:13;103296.84;;;8.53;100.00
3206;BME280;1615;53.602;11.418;2023-02-14T03:25:46;103298.13;;;8.50;100.00
3206;BME280;1615;53.602;11.418;2023-02-14T03:33:51;103290.09;;;8.62;100.00
3206;BME280;1615;53.602;11.418;2023-02-14T03:39:20;103293.84;;;8.67;100.00
3206;BME280;1615;53.602;11.418;2023-02-14T03:41:56;103300.13;;;8.68;100.00
3206;BME280;1615;53.602;11.418;2023-02-14T03:44:28;103285.50;;;8.56;100.00
3206;BME280;1615;53.602;11.418;2023-02-14T03:46:57;103297.22;;;8.63;100.00
3206;BME280;1615;53.602;11.418;2023-02-14T03:49:28;103291.75;;;8.63;100.00
3206;BME280;1615;53.602;11.418;2023-02-14T03:51:55;103294.56;;;8.50;100.00
3206;BME280;1615;53.602;11.418;2023-02-14T03:54:24;103166.44;;;7.78;100.00
3206;BME280;1615;53.602;11.418;2023-02-14T03:59:50;103294.88;;;8.29;100.00
3206;BME280;1615;53.602;11.418;2023-02-14T04:02:24;103290.22;;;8.36;100.00
3206;BME280;1615;53.602;11.418;2023-02-14T04:04:51;103255.56;;;8.30;100.00
3206;BME280;1615;53.602;11.418;2023-02-14T04:07:20;103296.69;;;8.48;100.00
3206;BME280;1615;53.602;11.418;2023-02-14T04:09:46;103189.94;;;7.86;100.00
3206;BME280;1615;53.602;11.418;2023-02-14T04:12:12;103295.22;;;8.45;100.00
3206;BME280;1615;53.602;11.418;2023-02-14T04:14:38;103288.88;;;8.51;100.00
3206;BME280;1615;53.602;11.418;2023-02-14T04:17:04;103122.06;;;7.39;100.00
3206;BME280;1615;53.602;11.418;2023-02-14T04:19:48;103286.38;;;8.43;100.00
3206;BME280;1615;53.602;11.418;2023-02-14T04:22:14;103288.50;;;8.48;100.00
3206;BME280;1615;53.602;11.418;2023-02-14T04:24:39;103287.81;;;8.59;100.00
3206;BME280;1615;53.602;11.418;2023-02-14T04:27:04;103281.22;;;8.66;100.00
3206;BME280;1615;53.602;11.418;2023-02-14T04:29:41;102793.56;;;5.77;100.00
3206;BME280;1615;53.602;11.418;2023-02-14T04:32:09;103285.59;;;8.74;100.00
3206;BME280;1615;53.602;11.418;2023-02-14T04:34:34;103280.75;;;8.76;100.00
3206;BME280;1615;53.602;11.418;2023-02-14T04:37:00;103178.94;;;8.05;100.00
3206;BME280;1615;53.602;11.418;2023-02-14T04:39:26;103283.38;;;8.58;100.00
3206;BME280;1615;53.602;11.418;2023-02-14T04:41:51;103275.81;;;8.60;100.00
3206;BME280;1615;53.602;11.418;2023-02-14T04:44:16;103277.47;;;8.61;100.00
3206;BME280;1615;53.602;11.418;2023-02-14T04:46:42;103275.81;;;8.60;100.00
3206;BME280;1615;53.602;11.418;2023-02-14T04:49:07;103280.22;;;8.61;100.00
3206;BME280;1615;53.602;11.418;2023-02-14T04:51:32;103243.03;;;8.47;100.00
3206;BME280;1615;53.602;11.418;2023-02-14T04:53:58;103280.75;;;8.76;100.00
3206;BME280;1615;53.602;11.418;2023-02-14T04:56:23;103210.75;;;8.31;100.00
3206;BME280;1615;53.602;11.418;2023-02-14T04:58:51;103277.44;;;8.67;100.00
3206;BME280;1615;53.602;11.418;2023-02-14T05:01:16;103287.34;;;8.62;100.00
3206;BME280;1615;53.602;11.418;2023-02-14T05:03:42;103280.38;;;8.66;100.00
3206;BME280;1615;53.602;11.418;2023-02-14T05:06:07;103270.34;;;8.60;100.00
3206;BME280;1615;53.602;11.418;2023-02-14T05:08:32;103273.50;;;8.57;100.00
3206;BME280;1615;53.602;11.418;2023-02-14T05:10:58;103276.03;;;8.52;100.00
3206;BME280;1615;53.602;11.418;2023-02-14T05:13:23;103267.84;;;8.52;100.00
3206;BME280;1615;53.602;11.418;2023-02-14T05:15:51;103267.81;;;8.58;100.00
3206;BME280;1615;53.602;11.418;2023-02-14T05:18:16;103270.72;;;8.63;100.00
3206;BME280;1615;53.602;11.418;2023-02-14T05:20:44;103265.66;;;8.67;100.00
3206;BME280;1615;53.602;11.418;2023-02-14T05:23:09;103267.31;;;8.68;100.00
3206;BME280;1615;53.602;11.418;2023-02-14T05:25:38;103204.88;;;8.34;100.00
3206;BME280;1615;53.602;11.418;2023-02-14T05:28:04;103261.44;;;8.71;100.00
3206;BME280;1615;53.602;11.418;2023-02-14T05:30:30;103261.25;;;8.66;100.00
3206;BME280;1615;53.602;11.418;2023-02-14T05:32:55;103220.66;;;8.32;100.00
3206;BME280;1615;53.602;11.418;2023-02-14T05:35:20;103204.91;;;8.21;100.00
3206;BME280;1615;53.602;11.418;2023-02-14T05:37:45;103263.63;;;8.56;100.00
3206;BME280;1615;53.602;11.418;2023-02-14T05:40:11;103263.81;;;8.61;100.00
3206;BME280;1615;53.602;11.418;2023-02-14T05:42:41;103203.03;;;8.15;100.00
3206;BME280;1615;53.602;11.418;2023-02-14T05:45:07;103265.97;;;8.46;100.00
3206;BME280;1615;53.602;11.418;2023-02-14T05:47:33;103259.50;;;8.40;100.00
3206;BME280;1615;53.602;11.418;2023-02-14T05:49:59;103135.03;;;7.63;100.00
3206;BME280;1615;53.602;11.418;2023-02-14T05:52:27;103263.53;;;8.38;100.00
3206;BME280;1615;53.602;11.418;2023-02-14T05:54:52;103257.63;;;8.34;100.00
3206;BME280;1615;53.602;11.418;2023-02-14T05:57:17;103254.06;;;8.34;100.00
3206;BME280;1615;53.602;11.418;2023-02-14T05:59:43;103260.31;;;8.41;100.00
3206;BME280;1615;53.602;11.418;2023-02-14T06:02:08;103111.94;;;7.52;100.00
3206;BME280;1615;53.602;11.418;2023-02-14T06:04:38;103178.75;;;7.94;100.00
3206;BME280;1615;53.602;11.418;2023-02-14T06:07:03;103261.38;;;8.46;100.00
3206;BME280;1615;53.602;11.418;2023-02-14T06:09:28;103256.47;;;8.55;100.00
3206;BME280;1615;53.602;11.418;2023-02-14T06:11:54;103256.91;;;8.52;100.00
3206;BME280;1615;53.602;11.418;2023-02-14T06:14:19;103244.56;;;8.43;100.00
3206;BME280;1615;53.602;11.418;2023-02-14T06:16:44;103097.63;;;7.57;100.00
3206;BME280;1615;53.602;11.418;2023-02-14T06:19:10;103257.34;;;8.49;100.00
3206;BME280;1615;53.602;11.418;2023-02-14T06:21:36;103262.44;;;8.45;100.00
3206;BME280;1615;53.602;11.418;2023-02-14T06:24:02;103259.06;;;8.43;100.00
3206;BME280;1615;53.602;11.418;2023-02-14T06:26:27;103264.09;;;8.46;100.00
3206;BME280;1615;53.602;11.418;2023-02-14T06:28:55;103260.09;;;8.49;100.00
3206;BME280;1615;53.602;11.418;2023-02-14T06:31:20;103260.28;;;8.54;100.00
3206;BME280;1615;53.602;11.418;2023-02-14T06:33:46;103356.66;;;8.43;100.00
3206;BME280;1615;53.602;11.418;2023-02-14T06:36:11;103238.53;;;8.28;100.00
3206;BME280;1615;53.602;11.418;2023-02-14T06:38:36;103260.31;;;8.47;100.00
3206;BME280;1615;53.602;11.418;2023-02-14T06:41:03;103265.41;;;8.37;100.00
3206;BME280;1615;53.602;11.418;2023-02-14T06:43:29;103224.69;;;8.10;100.00
3206;BME280;1615;53.602;11.418;2023-02-14T06:45:54;103255.75;;;8.35;100.00
3206;BME280;1615;53.602;11.418;2023-02-14T06:48:20;103254.28;;;8.32;100.00
3206;BME280;1615;53.602;11.418;2023-02-14T06:50:46;103259.53;;;8.34;100.00
3206;BME280;1615;53.602;11.418;2023-02-14T06:53:11;103258.66;;;8.40;100.00
3206;BME280;1615;53.602;11.418;2023-02-14T06:55:36;103256.72;;;8.47;100.00
3206;BME280;1615;53.602;11.418;2023-02-14T06:58:02;103277.56;;;8.48;100.00
3206;BME280;1615;53.602;11.418;2023-02-14T07:00:27;103189.81;;;8.12;100.00
3206;BME280;1615;53.602;11.418;2023-02-14T07:02:53;103248.50;;;8.47;100.00
3206;BME280;1615;53.602;11.418;2023-02-14T07:05:18;103259.03;;;8.50;100.00
3206;BME280;1615;53.602;11.418;2023-02-14T07:07:44;103257.38;;;8.42;100.00
3206;BME280;1615;53.602;11.418;2023-02-14T07:10:09;103253.63;;;8.37;100.00
3206;BME280;1615;53.602;11.418;2023-02-14T07:12:35;103258.06;;;8.38;100.00
3206;BME280;1615;53.602;11.418;2023-02-14T07:15:04;103136.44;;;7.72;100.00
3206;BME280;1615;53.602;11.418;2023-02-14T07:17:30;103262.81;;;8.49;100.00
3206;BME280;1615;53.602;11.418;2023-02-14T07:19:55;103257.75;;;8.52;100.00
3206;BME280;1615;53.602;11.418;2023-02-14T07:22:20;103261.09;;;8.54;100.00
3206;BME280;1615;53.602;11.418;2023-02-14T07:24:45;103257.06;;;8.63;100.00
3206;BME280;1615;53.602;11.418;2023-02-14T07:27:11;103252.16;;;8.72;100.00
3206;BME280;1615;53.602;11.418;2023-02-14T07:29:36;103253.84;;;8.73;100.00
3206;BME280;1615;53.602;11.418;2023-02-14T07:32:01;103245.03;;;8.71;100.00
3206;BME280;1615;53.602;11.418;2023-02-14T07:34:27;103255.97;;;8.71;100.00
3206;BME280;1615;53.602;11.418;2023-02-14T07:36:52;103251.31;;;8.71;100.00
3206;BME280;1615;53.602;11.418;2023-02-14T07:39:17;103135.00;;;8.07;100.00
3206;BME280;1615;53.602;11.418;2023-02-14T07:41:43;103236.63;;;8.66;100.00
3206;BME280;1615;53.602;11.418;2023-02-14T07:44:08;103249.25;;;8.67;100.00
3206;BME280;1615;53.602;11.418;2023-02-14T07:46:33;103250.03;;;8.74;100.00
3206;BME280;1615;53.602;11.418;2023-02-14T07:48:59;103244.72;;;8.79;100.00
3206;BME280;1615;53.602;11.418;2023-02-14T07:51:24;103063.19;;;7.62;100.00
3206;BME280;1615;53.602;11.418;2023-02-14T07:53:49;103239.72;;;8.76;100.00
3206;BME280;1615;53.602;11.418;2023-02-14T07:56:15;103241.56;;;8.82;100.00
3206;BME280;1615;53.602;11.418;2023-02-14T07:58:40;103243.16;;;8.96;100.00
3206;BME280;1615;53.602;11.418;2023-02-14T08:01:05;103244.84;;;8.97;100.00
3206;BME280;1615;53.602;11.418;2023-02-14T08:03:31;103242.75;;;8.92;100.00
3206;BME280;1615;53.602;11.418;2023-02-14T08:05:56;103253.25;;;8.95;100.00
3206;BME280;1615;53.602;11.418;2023-02-14T08:08:26;103261.19;;;9.03;100.00
3206;BME280;1615;53.602;11.418;2023-02-14T08:10:51;103248.47;;;9.15;100.00
3206;BME280;1615;53.602;11.418;2023-02-14T08:13:17;103247.53;;;9.28;100.00
3206;BME280;1615;53.602;11.418;2023-02-14T08:15:42;103245.38;;;9.30;100.00
3206;BME280;1615;53.602;11.418;2023-02-14T08:18:26;103242.97;;;9.40;100.00
3206;BME280;1615;53.602;11.418;2023-02-14T08:20:52;103246.31;;;9.42;100.00
3206;BME280;1615;53.602;11.418;2023-02-14T08:23:18;103227.22;;;9.35;100.00
3206;BME280;1615;53.602;11.418;2023-02-14T08:25:44;103250.84;;;9.54;100.00
3206;BME280;1615;53.602;11.418;2023-02-14T08:28:10;103252.22;;;9.63;100.00
3206;BME280;1615;53.602;11.418;2023-02-14T08:30:36;103111.34;;;8.81;100.00
3206;BME280;1615;53.602;11.418;2023-02-14T08:33:05;103214.53;;;9.41;100.00
3206;BME280;1615;53.602;11.418;2023-02-14T08:35:30;103255.03;;;9.75;100.00
3206;BME280;1615;53.602;11.418;2023-02-14T08:37:57;103130.34;;;8.94;100.00
3206;BME280;1615;53.602;11.418;2023-02-14T08:40:22;103255.50;;;9.72;100.00
3206;BME280;1615;53.602;11.418;2023-02-14T08:42:47;103247.88;;;9.74;100.00
3206;BME280;1615;53.602;11.418;2023-02-14T08:45:13;103256.75;;;9.76;100.00
3206;BME280;1615;53.602;11.418;2023-02-14T08:47:38;103253.75;;;9.77;100.00
3206;BME280;1615;53.602;11.418;2023-02-14T08:50:06;103256.25;;;9.79;100.00
3206;BME280;1615;53.602;11.418;2023-02-14T08:52:31;103254.13;;;9.81;100.00
3206;BME280;1615;53.602;11.418;2023-02-14T08:54:57;103258.88;;;9.92;100.00
3206;BME280;1615;53.602;11.418;2023-02-14T08:57:22;103253.06;;;10.00;100.00
3206;BME280;1615;53.602;11.418;2023-02-14T08:59:48;103250.88;;;9.90;100.00
3206;BME280;1615;53.602;11.418;2023-02-14T09:02:13;103249.81;;;9.91;100.00
3206;BME280;1615;53.602;11.418;2023-02-14T09:04:38;103249.88;;;9.85;100.00
3206;BME280;1615;53.602;11.418;2023-02-14T09:07:04;103253.47;;;9.85;100.00
3206;BME280;1615;53.602;11.418;2023-02-14T09:09:30;103247.28;;;9.90;100.00
3206;BME280;1615;53.602;11.418;2023-02-14T09:11:56;103245.06;;;9.98;100.00
3206;BME280;1615;53.602;11.418;2023-02-14T09:14:21;103258.13;;;10.03;100.00
3206;BME280;1615;53.602;11.418;2023-02-14T09:16:48;103256.41;;;10.02;100.00
3206;BME280;1615;53.602;11.418;2023-02-14T09:19:13;103250.19;;;9.95;100.00
3206;BME280;1615;53.602;11.418;2023-02-14T09:21:39;103253.06;;;10.00;100.00
3206;BME280;1615;53.602;11.418;2023-02-14T09:24:05;103248.53;;;10.12;100.00
3206;BME280;1615;53.602;11.418;2023-02-14T09:26:30;103244.84;;;10.18;100.00
3206;BME280;1615;53.602;11.418;2023-02-14T09:28:56;103211.69;;;9.72;100.00
3206;BME280;1615;53.602;11.418;2023-02-14T09:31:23;103250.09;;;10.01;100.00
3206;BME280;1615;53.602;11.418;2023-02-14T09:33:51;103253.50;;;9.97;100.00
3206;BME280;1615;53.602;11.418;2023-02-14T09:36:16;103258.19;;;9.96;100.00
3206;BME280;1615;53.602;11.418;2023-02-14T09:38:42;103254.34;;;10.04;100.00
3206;BME280;1615;53.602;11.418;2023-02-14T09:41:09;103129.34;;;9.31;100.00
3206;BME280;1615;53.602;11.418;2023-02-14T09:43:54;103247.94;;;10.10;100.00
3206;BME280;1615;53.602;11.418;2023-02-14T09:46:23;103257.22;;;10.09;100.00
3206;BME280;1615;53.602;11.418;2023-02-14T09:48:51;103257.59;;;10.12;100.00
3206;BME280;1615;53.602;11.418;2023-02-14T09:51:19;103253.72;;;10.20;100.00
3206;BME280;1615;53.602;11.418;2023-02-14T09:54:13;103254.81;;;10.30;100.00
3206;BME280;1615;53.602;11.418;2023-02-14T09:56:56;103244.50;;;10.44;100.00
3206;BME280;1615;53.602;11.418;2023-02-14T09:59:30;103250.28;;;10.54;100.00
3206;BME280;1615;53.602;11.418;2023-02-14T10:04:41;103255.19;;;10.52;100.00
3206;BME280;1615;53.602;11.418;2023-02-14T10:10:00;103250.34;;;10.36;100.00
3206;BME280;1615;53.602;11.418;2023-02-14T10:12:37;103250.63;;;10.28;100.00
3206;BME280;1615;53.602;11.418;2023-02-14T10:15:13;103249.97;;;10.32;100.00
3206;BME280;1615;53.602;11.418;2023-02-14T10:20:28;103254.00;;;10.30;100.00
3206;BME280;1615;53.602;11.418;2023-02-14T10:23:03;103247.66;;;10.29;100.00
3206;BME280;1615;53.602;11.418;2023-02-14T10:25:44;103235.13;;;10.22;100.00
3206;BME280;1615;53.602;11.418;2023-02-14T10:28:13;103246.81;;;10.29;100.00
3206;BME280;1615;53.602;11.418;2023-02-14T10:30:44;103250.94;;;10.38;100.00
3206;BME280;1615;53.602;11.418;2023-02-14T10:33:18;103252.81;;;10.55;100.00
3206;BME280;1615;53.602;11.418;2023-02-14T10:35:48;103234.00;;;10.70;100.00
3206;BME280;1615;53.602;11.418;2023-02-14T10:51:30;103229.97;;;10.84;100.00
3206;BME280;1615;53.602;11.418;2023-02-14T10:56:30;103235.19;;;10.63;100.00
3206;BME280;1615;53.602;11.418;2023-02-14T10:59:03;103240.91;;;10.61;100.00
3206;BME280;1615;53.602;11.418;2023-02-14T11:01:32;103225.56;;;10.72;100.00
3206;BME280;1615;53.602;11.418;2023-02-14T11:04:01;103114.50;;;10.22;100.00
3206;BME280;1615;53.602;11.418;2023-02-14T11:06:33;103223.97;;;11.17;100.00
3206;BME280;1615;53.602;11.418;2023-02-14T11:08:58;103079.13;;;10.32;100.00
3206;BME280;1615;53.602;11.418;2023-02-14T11:13:58;103223.97;;;11.17;100.00
3206;BME280;1615;53.602;11.418;2023-02-14T11:16:34;103215.56;;;10.89;100.00
3206;BME280;1615;53.602;11.418;2023-02-14T11:21:42;103209.28;;;10.59;100.00
3206;BME280;1615;53.602;11.418;2023-02-14T11:24:26;103207.91;;;10.38;100.00
3206;BME280;1615;53.602;11.418;2023-02-14T11:26:54;103162.81;;;10.05;100.00
3206;BME280;1615;53.602;11.418;2023-02-14T11:29:28;103206.31;;;10.31;100.00
3206;BME280;1615;53.602;11.418;2023-02-14T11:31:54;103126.06;;;9.76;100.00
3206;BME280;1615;53.602;11.418;2023-02-14T11:36:58;103172.09;;;10.04;100.00
3206;BME280;1615;53.602;11.418;2023-02-14T11:39:32;103189.78;;;10.08;100.00
3206;BME280;1615;53.602;11.418;2023-02-14T11:42:03;103182.97;;;10.10;100.00
3206;BME280;1615;53.602;11.418;2023-02-14T11:44:31;103188.84;;;10.14;100.00
3206;BME280;1615;53.602;11.418;2023-02-14T11:47:16;103191.44;;;10.09;100.00
3206;BME280;1615;53.602;11.418;2023-02-14T11:49:53;102703.66;;;7.27;100.00
3206;BME280;1615;53.602;11.418;2023-02-14T11:52:19;103179.91;;;10.18;100.00
3206;BME280;1615;53.602;11.418;2023-02-14T11:54:51;103060.50;;;9.45;100.00
3206;BME280;1615;53.602;11.418;2023-02-14T11:57:29;103168.88;;;10.25;100.00
3206;BME280;1615;53.602;11.418;2023-02-14T11:59:58;103166.72;;;10.27;100.00
3206;BME280;1615;53.602;11.418;2023-02-14T12:05:00;103158.84;;;10.30;100.00
3206;BME280;1615;53.602;11.418;2023-02-14T12:07:31;103156.13;;;10.30;100.00
3206;BME280;1615;53.602;11.418;2023-02-14T12:12:34;103136.69;;;10.32;100.00
3206;BME280;1615;53.602;11.418;2023-02-14T12:17:47;103133.38;;;10.41;100.00
3206;BME280;1615;53.602;11.418;2023-02-14T12:20:19;103127.38;;;10.33;100.00
3206;BME280;1615;53.602;11.418;2023-02-14T12:22:54;103125.28;;;10.35;100.00
3206;BME280;1615;53.602;11.418;2023-02-14T12:25:38;103131.81;;;10.34;100.00
3206;BME280;1615;53.602;11.418;2023-02-14T12:28:09;103125.59;;;10.27;100.00
3206;BME280;1615;53.602;11.418;2023-02-14T12:30:36;103120.78;;;10.11;100.00
3206;BME280;1615;53.602;11.418;2023-02-14T12:33:01;103118.44;;;10.26;100.00
3206;BME280;1615;53.602;11.418;2023-02-14T12:43:52;103118.44;;;10.67;100.00
3206;BME280;1615;53.602;11.418;2023-02-14T12:51:51;103072.47;;;10.62;100.00
3206;BME280;1615;53.602;11.418;2023-02-14T13:08:14;103093.13;;;10.76;100.00
3206;BME280;1615;53.602;11.418;2023-02-14T13:11:06;103088.59;;;10.82;100.00
3206;BME280;1615;53.602;11.418;2023-02-14T13:16:45;103065.78;;;10.93;100.00
3206;BME280;1615;53.602;11.418;2023-02-14T13:21:56;103058.63;;;11.15;100.00
3206;BME280;1615;53.602;11.418;2023-02-14T13:24:25;103074.59;;;11.18;100.00
3206;BME280;1615;53.602;11.418;2023-02-14T13:26:58;103043.94;;;10.98;100.00
3206;BME280;1615;53.602;11.418;2023-02-14T13:29:27;103064.00;;;11.10;100.00
3206;BME280;1615;53.602;11.418;2023-02-14T13:31:57;103060.06;;;11.06;100.00
3206;BME280;1615;53.602;11.418;2023-02-14T13:34:34;103059.00;;;11.07;100.00
3206;BME280;1615;53.602;11.418;2023-02-14T13:37:06;103051.94;;;10.99;100.00
3206;BME280;1615;53.602;11.418;2023-02-14T13:42:03;103049.81;;;11.01;100.00
3206;BME280;1615;53.602;11.418;2023-02-14T13:44:46;103027.06;;;10.78;100.00
3206;BME280;1615;53.602;11.418;2023-02-14T13:47:17;103044.69;;;10.82;100.00
3206;BME280;1615;53.602;11.418;2023-02-14T13:49:49;103043.00;;;10.81;100.00
3206;BME280;1615;53.602;11.418;2023-02-14T13:52:39;103037.66;;;10.86;100.00
3206;BME280;1615;53.602;11.418;2023-02-14T13:55:14;103022.28;;;10.62;100.00
3206;BME280;1615;53.602;11.418;2023-02-14T13:57:41;102995.06;;;10.49;100.00
3206;BME280;1615;53.602;11.418;2023-02-14T14:02:51;103036.56;;;10.87;100.00
3206;BME280;1615;53.602;11.418;2023-02-14T14:05:48;103027.75;;;10.85;100.00
3206;BME280;1615;53.602;11.418;2023-02-14T14:10:58;103025.75;;;10.80;100.00
3206;BME280;1615;53.602;11.418;2023-02-14T14:19:06;102998.66;;;10.61;100.00
3206;BME280;1615;53.602;11.418;2023-02-14T14:21:38;103011.56;;;10.72;100.00
3206;BME280;1615;53.602;11.418;2023-02-14T14:24:21;103012.47;;;10.66;100.00
3206;BME280;1615;53.602;11.418;2023-02-14T14:26:50;103020.38;;;10.74;100.00
3206;BME280;1615;53.602;11.418;2023-02-14T14:29:23;103004.47;;;10.99;100.00
3206;BME280;1615;53.602;11.418;2023-02-14T14:31:50;103029.53;;;11.02;100.00
3206;BME280;1615;53.602;11.418;2023-02-14T14:34:20;102996.97;;;10.83;100.00
3206;BME280;1615;53.602;11.418;2023-02-14T14:36:46;103016.53;;;10.75;100.00
3206;BME280;1615;53.602;11.418;2023-02-14T14:39:27;102868.94;;;10.03;100.00
3206;BME280;1615;53.602;11.418;2023-02-14T14:41:55;102990.28;;;10.79;100.00
3206;BME280;1615;53.602;11.418;2023-02-14T14:44:20;102930.34;;;10.48;100.00
3206;BME280;1615;53.602;11.418;2023-02-14T14:46:47;102978.47;;;10.78;100.00
3206;BME280;1615;53.602;11.418;2023-02-14T14:49:15;102974.81;;;10.73;100.00
3206;BME280;1615;53.602;11.418;2023-02-14T14:51:41;102984.00;;;10.55;100.00
3206;BME280;1615;53.602;11.418;2023-02-14T14:54:20;102977.19;;;10.58;100.00
3206;BME280;1615;53.602;11.418;2023-02-14T14:56:52;102978.41;;;10.62;100.00
3206;BME280;1615;53.602;11.418;2023-02-14T15:01:47;102973.22;;;10.77;100.00
3206;BME280;1615;53.602;11.418;2023-02-14T15:04:19;102950.47;;;10.65;100.00
3206;BME280;1615;53.602;11.418;2023-02-14T15:06:49;102975.97;;;10.77;100.00
3206;BME280;1615;53.602;11.418;2023-02-14T15:09:19;102968.59;;;10.66;100.00
3206;BME280;1615;53.602;11.418;2023-02-14T15:11:46;102971.72;;;10.58;100.00
3206;BME280;1615;53.602;11.418;2023-02-14T15:14:34;102972.44;;;10.53;100.00
3206;BME280;1615;53.602;11.418;2023-02-14T15:17:09;102983.53;;;10.47;100.00
3206;BME280;1615;53.602;11.418;2023-02-14T15:19:42;102974.31;;;10.41;100.00
3206;BME280;1615;53.602;11.418;2023-02-14T15:22:23;102919.03;;;10.10;100.00